createdAt,value
2017-12-28T00:00:02.113Z,77.51
2017-12-28T00:01:02.399Z,77.03
2017-12-28T00:02:02.413Z,77.79
2017-12-28T00:03:02.421Z,77.51
2017-12-28T00:04:02.444Z,77.31
2017-12-28T00:05:02.452Z,77.79
2017-12-28T00:06:02.475Z,78.08
2017-12-28T00:07:02.477Z,77.79
2017-12-28T00:08:02.486Z,77.22
2017-12-28T00:09:02.225Z,77.22
2017-12-28T00:10:02.517Z,77.51
2017-12-28T00:11:02.529Z,77.51
2017-12-28T00:12:02.258Z,77.79
2017-12-28T00:13:02.273Z,78.08
2017-12-28T00:14:02.284Z,77.89
2017-12-28T00:15:02.579Z,77.51
2017-12-28T00:16:02.582Z,77.41
2017-12-28T00:17:02.596Z,78.08
2017-12-28T00:18:02.610Z,77.98
2017-12-28T00:19:02.624Z,77.79
2017-12-28T00:20:02.682Z,78.08
2017-12-28T00:21:02.370Z,77.89
2017-12-28T00:22:02.658Z,77.89
2017-12-28T00:23:02.395Z,77.89
2017-12-28T00:24:02.682Z,77.98
2017-12-28T00:25:02.751Z,77.98
2017-12-28T00:26:02.430Z,77.79
2017-12-28T00:27:02.721Z,77.98
2017-12-28T00:28:02.455Z,77.98
2017-12-28T00:29:02.741Z,77.79
2017-12-28T00:30:02.481Z,77.98
2017-12-28T00:31:02.793Z,77.89
2017-12-28T00:32:02.508Z,77.98
2017-12-28T00:33:02.792Z,77.98
2017-12-28T00:34:02.823Z,77.89
2017-12-28T00:35:02.642Z,77.79
2017-12-28T00:36:02.557Z,77.79
2017-12-28T00:37:02.842Z,77.89
2017-12-28T00:38:02.854Z,77.79
2017-12-28T00:39:02.866Z,77.79
2017-12-28T00:40:02.619Z,77.98
2017-12-28T00:41:02.889Z,77.79
2017-12-28T00:42:02.635Z,77.79
2017-12-28T00:43:02.640Z,77.79
2017-12-28T00:44:02.928Z,77.7
2017-12-28T00:45:02.939Z,77.79
2017-12-28T00:46:02.951Z,77.79
2017-12-28T00:47:02.965Z,77.22
2017-12-28T00:48:02.772Z,77.79
2017-12-28T00:49:02.986Z,77.89
2017-12-28T00:50:02.753Z,77.7
2017-12-28T00:51:02.739Z,77.79
2017-12-28T00:52:03.028Z,77.89
2017-12-28T00:53:02.764Z,77.79
2017-12-28T00:54:02.794Z,77.6
2017-12-28T00:55:03.063Z,77.7
2017-12-28T00:56:02.826Z,77.7
2017-12-28T00:57:02.813Z,77.98
2017-12-28T00:58:02.931Z,77.79
2017-12-28T00:59:03.114Z,77.79
2017-12-28T01:00:02.851Z,77.79
2017-12-28T01:01:03.135Z,77.98
2017-12-28T01:02:02.899Z,77.7
2017-12-28T01:03:02.888Z,77.51
2017-12-28T01:04:03.194Z,77.79
2017-12-28T01:05:03.223Z,77.79
2017-12-28T01:06:02.931Z,77.6
2017-12-28T01:07:03.214Z,77.6
2017-12-28T01:08:02.955Z,77.98
2017-12-28T01:09:02.960Z,77.7
2017-12-28T01:10:03.043Z,77.7
2017-12-28T01:11:02.984Z,77.98
2017-12-28T01:12:03.001Z,77.98
2017-12-28T01:13:03.013Z,77.98
2017-12-28T01:14:03.021Z,77.98
2017-12-28T01:15:03.040Z,77.7
2017-12-28T01:16:03.071Z,77.6
2017-12-28T01:17:03.332Z,77.98
2017-12-28T01:18:03.357Z,77.6
2017-12-28T01:19:03.364Z,77.89
2017-12-28T01:20:03.425Z,77.7
2017-12-28T01:21:03.381Z,77.6
2017-12-28T01:22:03.403Z,77.79
2017-12-28T01:23:03.408Z,77.98
2017-12-28T01:24:03.428Z,77.41
2017-12-28T01:25:03.431Z,77.7
2017-12-28T01:26:03.181Z,77.79
2017-12-28T01:27:03.180Z,77.7
2017-12-28T01:28:03.196Z,77.98
2017-12-28T01:29:03.208Z,77.98
2017-12-28T01:30:03.496Z,77.89
2017-12-28T01:31:03.534Z,77.89
2017-12-28T01:32:03.529Z,77.79
2017-12-28T01:33:03.254Z,77.98
2017-12-28T01:34:03.555Z,77.98
2017-12-28T01:35:03.554Z,77.89
2017-12-28T01:36:03.291Z,77.98
2017-12-28T01:37:03.579Z,77.98
2017-12-28T01:38:03.589Z,77.89
2017-12-28T01:39:03.327Z,77.89
2017-12-28T01:40:03.616Z,77.79
2017-12-28T01:41:03.627Z,77.89
2017-12-28T01:42:03.374Z,77.79
2017-12-28T01:43:03.652Z,77.79
2017-12-28T01:44:03.664Z,77.79
2017-12-28T01:45:03.503Z,77.98
2017-12-28T01:46:03.693Z,77.98
2017-12-28T01:47:03.425Z,77.79
2017-12-28T01:48:03.468Z,77.79
2017-12-28T01:49:03.725Z,78.08
2017-12-28T01:50:03.789Z,77.98
2017-12-28T01:51:03.750Z,77.79
2017-12-28T01:52:03.770Z,77.98
2017-12-28T01:53:03.773Z,77.79
2017-12-28T01:54:03.794Z,77.79
2017-12-28T01:55:03.574Z,77.31
2017-12-28T01:56:03.817Z,77.79
2017-12-28T01:57:03.824Z,77.89
2017-12-28T01:58:03.837Z,77.79
2017-12-28T01:59:03.849Z,77.89
2017-12-28T02:00:03.860Z,77.79
2017-12-28T02:01:03.878Z,77.89
2017-12-28T02:02:03.919Z,77.89
2017-12-28T02:03:03.620Z,77.98
2017-12-28T02:04:03.912Z,77.89
2017-12-28T02:05:03.645Z,77.79
2017-12-28T02:06:03.939Z,77.98
2017-12-28T02:07:03.967Z,77.89
2017-12-28T02:08:03.684Z,77.79
2017-12-28T02:09:03.695Z,77.89
2017-12-28T02:10:03.994Z,77.79
2017-12-28T02:11:04.005Z,77.98
2017-12-28T02:12:03.772Z,77.79
2017-12-28T02:13:04.026Z,77.79
2017-12-28T02:14:03.759Z,77.89
2017-12-28T02:15:03.770Z,77.79
2017-12-28T02:16:04.059Z,77.79
2017-12-28T02:17:04.073Z,77.31
2017-12-28T02:18:04.089Z,77.7
2017-12-28T02:19:04.099Z,77.7
2017-12-28T02:20:03.830Z,77.7
2017-12-28T02:21:03.845Z,77.7
2017-12-28T02:22:03.858Z,77.6
2017-12-28T02:23:03.868Z,77.7
2017-12-28T02:24:03.879Z,77.7
2017-12-28T02:25:03.891Z,77.89
2017-12-28T02:26:04.189Z,77.7
2017-12-28T02:27:04.193Z,77.89
2017-12-28T02:28:03.931Z,77.79
2017-12-28T02:29:03.941Z,77.98
2017-12-28T02:30:04.266Z,77.7
2017-12-28T02:31:03.973Z,77.79
2017-12-28T02:32:04.254Z,77.79
2017-12-28T02:33:03.994Z,77.79
2017-12-28T02:34:04.479Z,77.98
2017-12-28T02:35:04.017Z,77.51
2017-12-28T02:36:04.029Z,77.98
2017-12-28T02:37:04.040Z,77.98
2017-12-28T02:38:04.330Z,77.79
2017-12-28T02:39:04.378Z,77.6
2017-12-28T02:40:04.367Z,77.7
2017-12-28T02:41:04.367Z,77.7
2017-12-28T02:42:04.397Z,77.7
2017-12-28T02:43:04.390Z,77.98
2017-12-28T02:44:04.397Z,77.98
2017-12-28T02:45:04.426Z,77.98
2017-12-28T02:46:04.151Z,77.98
2017-12-28T02:47:04.163Z,77.6
2017-12-28T02:48:04.173Z,77.6
2017-12-28T02:49:04.187Z,77.89
2017-12-28T02:50:04.477Z,77.6
2017-12-28T02:51:04.210Z,77.89
2017-12-28T02:52:04.506Z,77.89
2017-12-28T02:53:04.508Z,77.89
2017-12-28T02:54:04.526Z,77.89
2017-12-28T02:55:04.540Z,77.98
2017-12-28T02:56:04.546Z,77.98
2017-12-28T02:57:04.560Z,77.98
2017-12-28T02:58:04.576Z,77.79
2017-12-28T02:59:04.309Z,77.79
2017-12-28T03:00:04.321Z,77.89
2017-12-28T03:01:04.608Z,77.98
2017-12-28T03:02:04.626Z,78.17
2017-12-28T03:03:04.357Z,77.98
2017-12-28T03:04:04.370Z,77.98
2017-12-28T03:05:04.658Z,77.79
2017-12-28T03:06:04.691Z,77.7
2017-12-28T03:07:04.684Z,77.98
2017-12-28T03:08:04.419Z,77.98
2017-12-28T03:09:04.705Z,77.79
2017-12-28T03:10:04.445Z,78.17
2017-12-28T03:11:04.729Z,78.17
2017-12-28T03:12:04.469Z,77.89
2017-12-28T03:13:04.757Z,77.89
2017-12-28T03:14:04.766Z,78.36
2017-12-28T03:15:04.788Z,78.27
2017-12-28T03:16:04.571Z,78.17
2017-12-28T03:17:04.804Z,77.89
2017-12-28T03:18:04.821Z,77.89
2017-12-28T03:19:04.830Z,77.98
2017-12-28T03:20:04.569Z,78.17
2017-12-28T03:21:04.850Z,77.98
2017-12-28T03:22:04.866Z,78.17
2017-12-28T03:23:04.878Z,77.98
2017-12-28T03:24:04.616Z,78.17
2017-12-28T03:25:04.626Z,78.17
2017-12-28T03:26:04.971Z,78.27
2017-12-28T03:27:04.656Z,78.17
2017-12-28T03:28:04.662Z,78.17
2017-12-28T03:29:04.952Z,78.17
2017-12-28T03:30:04.967Z,77.89
2017-12-28T03:31:05.289Z,77.98
2017-12-28T03:32:04.713Z,77.98
2017-12-28T03:33:05.025Z,77.98
2017-12-28T03:34:05.013Z,78.08
2017-12-28T03:35:05.027Z,78.27
2017-12-28T03:36:04.811Z,78.36
2017-12-28T03:37:04.774Z,77.98
2017-12-28T03:38:05.060Z,78.08
2017-12-28T03:39:04.797Z,77.98
2017-12-28T03:40:04.810Z,78.27
2017-12-28T03:41:04.833Z,77.98
2017-12-28T03:42:05.112Z,78.27
2017-12-28T03:43:05.121Z,78.27
2017-12-28T03:44:05.135Z,78.36
2017-12-28T03:45:05.148Z,77.98
2017-12-28T03:46:05.208Z,78.17
2017-12-28T03:47:05.171Z,78.08
2017-12-28T03:48:05.181Z,78.27
2017-12-28T03:49:04.923Z,77.89
2017-12-28T03:50:05.215Z,78.17
2017-12-28T03:51:05.272Z,78.17
2017-12-28T03:52:04.958Z,78.27
2017-12-28T03:53:05.245Z,78.36
2017-12-28T03:54:04.998Z,78.08
2017-12-28T03:55:05.274Z,77.89
2017-12-28T03:56:05.330Z,78.17
2017-12-28T03:57:05.299Z,78.27
2017-12-28T03:58:05.312Z,78.17
2017-12-28T03:59:05.053Z,78.08
2017-12-28T04:00:05.332Z,78.45
2017-12-28T04:01:05.343Z,78.36
2017-12-28T04:02:05.082Z,78.45
2017-12-28T04:03:05.093Z,78.45
2017-12-28T04:04:05.382Z,78.36
2017-12-28T04:05:05.116Z,78.36
2017-12-28T04:06:05.412Z,78.36
2017-12-28T04:07:05.142Z,78.36
2017-12-28T04:08:05.429Z,78.27
2017-12-28T04:09:05.165Z,78.08
2017-12-28T04:10:05.245Z,78.08
2017-12-28T04:11:05.468Z,78.36
2017-12-28T04:12:05.480Z,78.27
2017-12-28T04:13:05.218Z,78.45
2017-12-28T04:14:05.502Z,78.27
2017-12-28T04:15:05.519Z,78.55
2017-12-28T04:16:05.526Z,78.08
2017-12-28T04:17:05.539Z,78.27
2017-12-28T04:18:05.553Z,78.27
2017-12-28T04:19:05.564Z,78.27
2017-12-28T04:20:05.577Z,78.36
2017-12-28T04:21:05.602Z,78.36
2017-12-28T04:22:05.327Z,78.27
2017-12-28T04:23:05.612Z,77.98
2017-12-28T04:24:05.632Z,78.27
2017-12-28T04:25:05.384Z,78.27
2017-12-28T04:26:05.426Z,78.08
2017-12-28T04:27:05.663Z,78.27
2017-12-28T04:28:05.402Z,78.27
2017-12-28T04:29:05.694Z,78.08
2017-12-28T04:30:05.698Z,78.17
2017-12-28T04:31:05.457Z,78.55
2017-12-28T04:32:05.722Z,78.08
2017-12-28T04:33:05.738Z,77.98
2017-12-28T04:34:05.481Z,78.08
2017-12-28T04:35:05.492Z,78.08
2017-12-28T04:36:05.497Z,78.17
2017-12-28T04:37:06.015Z,77.98
2017-12-28T04:38:05.799Z,78.08
2017-12-28T04:39:05.809Z,78.17
2017-12-28T04:40:05.821Z,78.08
2017-12-28T04:41:05.564Z,77.98
2017-12-28T04:42:05.572Z,78.45
2017-12-28T04:43:05.859Z,78.55
2017-12-28T04:44:05.870Z,78.17
2017-12-28T04:45:05.607Z,78.45
2017-12-28T04:46:05.942Z,78.55
2017-12-28T04:47:05.908Z,78.55
2017-12-28T04:48:05.924Z,78.45
2017-12-28T04:49:05.659Z,78.45
2017-12-28T04:50:05.672Z,78.36
2017-12-28T04:51:06.008Z,78.55
2017-12-28T04:52:05.693Z,78.17
2017-12-28T04:53:05.979Z,78.36
2017-12-28T04:54:05.719Z,78.36
2017-12-28T04:55:05.730Z,78.36
2017-12-28T04:56:06.017Z,78.36
2017-12-28T04:57:05.754Z,78.55
2017-12-28T04:58:06.041Z,78.08
2017-12-28T04:59:06.058Z,78.36
2017-12-28T05:00:06.066Z,78.45
2017-12-28T05:01:06.135Z,78.45
2017-12-28T05:02:06.090Z,78.55
2017-12-28T05:03:05.826Z,78.36
2017-12-28T05:04:05.839Z,78.27
2017-12-28T05:05:06.128Z,78.36
2017-12-28T05:06:06.288Z,78.27
2017-12-28T05:07:05.875Z,78.17
2017-12-28T05:08:06.169Z,78.27
2017-12-28T05:09:06.183Z,78.27
2017-12-28T05:10:06.189Z,78.27
2017-12-28T05:11:05.926Z,78.27
2017-12-28T05:12:06.212Z,78.27
2017-12-28T05:13:06.226Z,78.45
2017-12-28T05:14:05.983Z,78.17
2017-12-28T05:15:06.249Z,78.55
2017-12-28T05:16:06.259Z,78.55
2017-12-28T05:17:05.999Z,78.45
2017-12-28T05:18:06.284Z,78.36
2017-12-28T05:19:06.297Z,77.98
2017-12-28T05:20:06.309Z,78.17
2017-12-28T05:21:06.047Z,78.08
2017-12-28T05:22:06.333Z,78.08
2017-12-28T05:23:06.345Z,78.27
2017-12-28T05:24:06.359Z,78.55
2017-12-28T05:25:06.095Z,78.27
2017-12-28T05:26:06.400Z,78.27
2017-12-28T05:27:06.119Z,78.08
2017-12-28T05:28:06.411Z,78.08
2017-12-28T05:29:06.427Z,78.27
2017-12-28T05:30:06.470Z,78.55
2017-12-28T05:31:06.169Z,78.45
2017-12-28T05:32:06.461Z,78.08
2017-12-28T05:33:06.530Z,78.27
2017-12-28T05:34:06.721Z,78.17
2017-12-28T05:35:06.497Z,78.45
2017-12-28T05:36:06.504Z,78.36
2017-12-28T05:37:06.518Z,78.45
2017-12-28T05:38:06.454Z,78.36
2017-12-28T05:39:06.273Z,78.36
2017-12-28T05:40:06.279Z,78.45
2017-12-28T05:41:06.580Z,78.45
2017-12-28T05:42:06.577Z,78.45
2017-12-28T05:43:06.318Z,78.55
2017-12-28T05:44:06.603Z,78.45
2017-12-28T05:45:06.340Z,78.36
2017-12-28T05:46:06.354Z,78.36
2017-12-28T05:47:06.640Z,78.17
2017-12-28T05:48:06.377Z,78.27
2017-12-28T05:49:06.665Z,78.36
2017-12-28T05:50:06.404Z,78.17
2017-12-28T05:51:06.688Z,78.45
2017-12-28T05:52:06.701Z,78.17
2017-12-28T05:53:06.441Z,78.17
2017-12-28T05:54:06.450Z,78.27
2017-12-28T05:55:06.734Z,78.08
2017-12-28T05:56:06.473Z,78.08
2017-12-28T05:57:06.766Z,78.17
2017-12-28T05:58:06.773Z,78.27
2017-12-28T05:59:06.785Z,78.36
2017-12-28T06:00:06.797Z,78.08
2017-12-28T06:01:06.534Z,78.27
2017-12-28T06:02:06.548Z,78.17
2017-12-28T06:03:06.835Z,78.74
2017-12-28T06:04:06.846Z,78.17
2017-12-28T06:05:06.582Z,78.08
2017-12-28T06:06:06.872Z,78.17
2017-12-28T06:07:06.616Z,78.64
2017-12-28T06:08:06.618Z,78.17
2017-12-28T06:09:06.908Z,78.83
2017-12-28T06:10:06.919Z,78.93
2017-12-28T06:11:06.929Z,78.36
2017-12-28T06:12:06.941Z,78.55
2017-12-28T06:13:06.958Z,78.74
2017-12-28T06:14:06.690Z,78.55
2017-12-28T06:15:06.984Z,78.74
2017-12-28T06:16:06.993Z,78.55
2017-12-28T06:17:07.005Z,78.36
2017-12-28T06:18:07.015Z,78.17
2017-12-28T06:19:06.754Z,78.27
2017-12-28T06:20:07.043Z,78.55
2017-12-28T06:21:07.056Z,78.55
2017-12-28T06:22:06.789Z,78.55
2017-12-28T06:23:07.078Z,78.55
2017-12-28T06:24:06.819Z,78.74
2017-12-28T06:25:07.106Z,78.45
2017-12-28T06:26:07.115Z,78.55
2017-12-28T06:27:06.854Z,78.55
2017-12-28T06:28:06.870Z,78.64
2017-12-28T06:29:07.150Z,78.45
2017-12-28T06:30:06.891Z,78.55
2017-12-28T06:31:07.174Z,78.74
2017-12-28T06:32:06.912Z,78.93
2017-12-28T06:33:07.199Z,78.83
2017-12-28T06:34:07.210Z,78.83
2017-12-28T06:35:07.223Z,78.93
2017-12-28T06:36:06.963Z,78.74
2017-12-28T06:37:06.978Z,79.03
2017-12-28T06:38:07.264Z,78.74
2017-12-28T06:39:06.995Z,79.12
2017-12-28T06:40:07.006Z,78.55
2017-12-28T06:41:07.297Z,78.93
2017-12-28T06:42:07.316Z,78.83
2017-12-28T06:43:07.043Z,78.83
2017-12-28T06:44:07.054Z,79.03
2017-12-28T06:45:07.108Z,78.93
2017-12-28T06:46:07.356Z,78.55
2017-12-28T06:47:07.419Z,79.31
2017-12-28T06:48:07.383Z,78.74
2017-12-28T06:49:07.394Z,78.83
2017-12-28T06:50:07.129Z,78.93
2017-12-28T06:51:07.418Z,78.74
2017-12-28T06:52:07.153Z,78.74
2017-12-28T06:53:07.166Z,78.93
2017-12-28T06:54:07.179Z,78.83
2017-12-28T06:55:07.467Z,79.03
2017-12-28T06:56:07.476Z,79.03
2017-12-28T06:57:07.489Z,79.22
2017-12-28T06:58:07.502Z,79.5
2017-12-28T06:59:07.239Z,79.69
2017-12-28T07:00:07.523Z,79.5
2017-12-28T07:01:07.267Z,79.12
2017-12-28T07:02:07.275Z,79.79
2017-12-28T07:03:07.561Z,79.5
2017-12-28T07:04:07.299Z,79.22
2017-12-28T07:05:07.313Z,79.41
2017-12-28T07:06:07.324Z,79.12
2017-12-28T07:07:07.387Z,79.41
2017-12-28T07:08:07.348Z,79.6
2017-12-28T07:09:07.361Z,79.41
2017-12-28T07:10:07.649Z,79.41
2017-12-28T07:11:07.656Z,79.5
2017-12-28T07:12:07.399Z,79.31
2017-12-28T07:13:07.682Z,79.5
2017-12-28T07:14:07.749Z,79.69
2017-12-28T07:15:07.708Z,79.41
2017-12-28T07:16:07.719Z,79.69
2017-12-28T07:17:07.507Z,79.41
2017-12-28T07:18:07.471Z,79.03
2017-12-28T07:19:07.485Z,78.93
2017-12-28T07:20:07.494Z,78.83
2017-12-28T07:21:07.786Z,78.27
2017-12-28T07:22:07.517Z,78.27
2017-12-28T07:23:07.807Z,78.45
2017-12-28T07:24:07.823Z,78.27
2017-12-28T07:25:07.556Z,78.36
2017-12-28T07:26:07.895Z,78.36
2017-12-28T07:27:07.855Z,78.08
2017-12-28T07:28:07.591Z,78.08
2017-12-28T07:29:07.880Z,78.08
2017-12-28T07:30:07.894Z,78.27
2017-12-28T07:31:07.901Z,78.55
2017-12-28T07:32:07.915Z,78.27
2017-12-28T07:33:07.653Z,78.55
2017-12-28T07:34:07.949Z,78.64
2017-12-28T07:35:07.676Z,78.36
2017-12-28T07:36:07.689Z,78.93
2017-12-28T07:37:07.980Z,78.64
2017-12-28T07:38:07.712Z,78.99
2017-12-28T07:39:08.000Z,78.89
2017-12-28T07:40:07.735Z,78.83
2017-12-28T07:41:07.749Z,78.7
2017-12-28T07:42:08.046Z,78.89
2017-12-28T07:43:08.050Z,78.74
2017-12-28T07:44:07.785Z,78.83
2017-12-28T07:45:07.797Z,78.83
2017-12-28T07:46:08.135Z,78.83
2017-12-28T07:47:07.841Z,78.83
2017-12-28T07:48:08.108Z,78.89
2017-12-28T07:49:08.124Z,78.89
2017-12-28T07:50:07.861Z,78.83
2017-12-28T07:51:07.873Z,79.03
2017-12-28T07:52:07.882Z,78.74
2017-12-28T07:53:07.896Z,79.12
2017-12-28T07:54:07.908Z,78.55
2017-12-28T07:55:08.197Z,79.17
2017-12-28T07:56:07.928Z,79.46
2017-12-28T07:57:07.945Z,79.17
2017-12-28T07:58:07.967Z,79.03
2017-12-28T07:59:07.969Z,79.55
2017-12-28T08:00:07.977Z,79.36
2017-12-28T08:01:08.263Z,79.27
2017-12-28T08:02:08.274Z,79.17
2017-12-28T08:03:08.012Z,78.89
2017-12-28T08:04:08.025Z,78.93
2017-12-28T08:05:08.309Z,78.99
2017-12-28T08:06:08.048Z,78.83
2017-12-28T08:07:08.085Z,78.74
2017-12-28T08:08:08.349Z,79.12
2017-12-28T08:09:08.085Z,79.03
2017-12-28T08:10:08.379Z,78.51
2017-12-28T08:11:08.109Z,78.93
2017-12-28T08:12:08.120Z,78.74
2017-12-28T08:13:08.406Z,78.89
2017-12-28T08:14:08.145Z,78.89
2017-12-28T08:15:08.158Z,78.89
2017-12-28T08:16:08.230Z,78.93
2017-12-28T08:17:08.183Z,78.89
2017-12-28T08:18:08.190Z,78.13
2017-12-28T08:19:08.204Z,78.61
2017-12-28T08:20:08.214Z,78.61
2017-12-28T08:21:08.227Z,78.61
2017-12-28T08:22:08.517Z,78.23
2017-12-28T08:23:08.251Z,78.61
2017-12-28T08:24:08.541Z,78.13
2017-12-28T08:25:08.274Z,78.51
2017-12-28T08:26:08.288Z,78.7
2017-12-28T08:27:08.301Z,78.51
2017-12-28T08:28:08.310Z,78.51
2017-12-28T08:29:08.598Z,78.99
2017-12-28T08:30:08.610Z,78.42
2017-12-28T08:31:08.346Z,78.42
2017-12-28T08:32:08.362Z,78.51
2017-12-28T08:33:08.370Z,78.7
2017-12-28T08:34:08.658Z,78.89
2017-12-28T08:35:08.671Z,78.51
2017-12-28T08:36:08.406Z,78.51
2017-12-28T08:37:08.692Z,78.32
2017-12-28T08:38:08.427Z,78.51
2017-12-28T08:39:08.441Z,78.42
2017-12-28T08:40:08.453Z,78.23
2017-12-28T08:41:08.463Z,78.51
2017-12-28T08:42:08.753Z,78.32
2017-12-28T08:43:08.764Z,78.32
2017-12-28T08:44:08.499Z,78.32
2017-12-28T08:45:08.511Z,78.32
2017-12-28T08:46:08.798Z,78.42
2017-12-28T08:47:08.533Z,78.51
2017-12-28T08:48:08.546Z,79.17
2017-12-28T08:49:08.558Z,78.51
2017-12-28T08:50:08.844Z,78.42
2017-12-28T08:51:08.866Z,78.23
2017-12-28T08:52:08.867Z,78.42
2017-12-28T08:53:08.886Z,78.7
2017-12-28T08:54:08.619Z,78.51
2017-12-28T08:55:08.630Z,78.42
2017-12-28T08:56:08.921Z,78.51
2017-12-28T08:57:08.653Z,78.7
2017-12-28T08:58:08.665Z,78.13
2017-12-28T08:59:08.953Z,78.23
2017-12-28T09:00:08.966Z,78.13
2017-12-28T09:01:09.057Z,78.23
2017-12-28T09:02:08.807Z,78.13
2017-12-28T09:03:08.724Z,78.23
2017-12-28T09:04:09.029Z,78.51
2017-12-28T09:05:08.749Z,78.51
2017-12-28T09:06:08.760Z,78.23
2017-12-28T09:07:08.774Z,78.23
2017-12-28T09:08:08.782Z,78.13
2017-12-28T09:09:09.074Z,78.13
2017-12-28T09:10:08.808Z,78.42
2017-12-28T09:11:09.093Z,78.42
2017-12-28T09:12:08.833Z,78.13
2017-12-28T09:13:08.844Z,78.32
2017-12-28T09:14:09.138Z,78.51
2017-12-28T09:15:09.141Z,78.32
2017-12-28T09:16:09.153Z,77.94
2017-12-28T09:17:08.889Z,77.94
2017-12-28T09:18:08.904Z,78.23
2017-12-28T09:19:08.913Z,77.94
2017-12-28T09:20:08.926Z,78.23
2017-12-28T09:21:08.937Z,77.84
2017-12-28T09:22:08.947Z,78.32
2017-12-28T09:23:08.959Z,77.94
2017-12-28T09:24:09.249Z,78.13
2017-12-28T09:25:08.983Z,77.75
2017-12-28T09:26:09.293Z,77.75
2017-12-28T09:27:09.281Z,77.94
2017-12-28T09:28:09.297Z,78.23
2017-12-28T09:29:09.034Z,77.84
2017-12-28T09:30:09.042Z,77.94
2017-12-28T09:31:09.053Z,77.75
2017-12-28T09:32:09.344Z,77.84
2017-12-28T09:33:09.358Z,77.56
2017-12-28T09:34:09.088Z,77.66
2017-12-28T09:35:09.376Z,77.94
2017-12-28T09:36:09.388Z,77.18
2017-12-28T09:37:09.125Z,77.28
2017-12-28T09:38:09.135Z,77.28
2017-12-28T09:39:09.150Z,77.47
2017-12-28T09:40:09.160Z,77.94
2017-12-28T09:41:09.173Z,77.28
2017-12-28T09:42:09.458Z,77.66
2017-12-28T09:43:09.194Z,77.56
2017-12-28T09:44:09.209Z,77.22
2017-12-28T09:45:09.219Z,76.99
2017-12-28T09:46:09.505Z,76.93
2017-12-28T09:47:09.518Z,77.03
2017-12-28T09:48:09.253Z,76.37
2017-12-28T09:49:09.266Z,77.18
2017-12-28T09:50:09.553Z,77.03
2017-12-28T09:51:09.289Z,76.99
2017-12-28T09:52:09.578Z,76.61
2017-12-28T09:53:09.313Z,76.61
2017-12-28T09:54:09.599Z,76.42
2017-12-28T09:55:09.614Z,76.61
2017-12-28T09:56:09.622Z,76.23
2017-12-28T09:57:09.362Z,76.23
2017-12-28T09:58:09.648Z,76.04
2017-12-28T09:59:09.384Z,75.95
2017-12-28T10:00:09.667Z,75.85
2017-12-28T10:01:09.410Z,76.23
2017-12-28T10:02:09.420Z,76.23
2017-12-28T10:03:09.709Z,75.76
2017-12-28T10:04:09.719Z,75.95
2017-12-28T10:05:09.455Z,76.14
2017-12-28T10:06:09.741Z,76.04
2017-12-28T10:07:09.478Z,75.67
2017-12-28T10:08:09.492Z,75.51
2017-12-28T10:09:09.776Z,75.57
2017-12-28T10:10:09.788Z,75.76
2017-12-28T10:11:09.799Z,76.23
2017-12-28T10:12:09.816Z,75.7
2017-12-28T10:13:09.550Z,76.46
2017-12-28T10:14:09.837Z,76.14
2017-12-28T10:15:09.849Z,75.89
2017-12-28T10:16:09.585Z,76.37
2017-12-28T10:17:09.870Z,75.79
2017-12-28T10:18:09.610Z,75.89
2017-12-28T10:19:09.896Z,75.04
2017-12-28T10:20:09.910Z,75.13
2017-12-28T10:21:09.922Z,75.51
2017-12-28T10:22:09.655Z,75.32
2017-12-28T10:23:09.943Z,75.13
2017-12-28T10:24:09.954Z,75.51
2017-12-28T10:25:09.966Z,75.32
2017-12-28T10:26:09.983Z,75.23
2017-12-28T10:27:09.991Z,75.04
2017-12-28T10:28:10.004Z,75.32
2017-12-28T10:29:10.018Z,75.23
2017-12-28T10:30:10.035Z,75.32
2017-12-28T10:31:09.764Z,75.13
2017-12-28T10:32:09.775Z,75.32
2017-12-28T10:33:09.787Z,75.51
2017-12-28T10:34:09.800Z,75.13
2017-12-28T10:35:10.086Z,75.42
2017-12-28T10:36:09.827Z,75.32
2017-12-28T10:37:09.866Z,75.32
2017-12-28T10:38:09.850Z,74.85
2017-12-28T10:39:10.134Z,74.85
2017-12-28T10:40:09.869Z,74.47
2017-12-28T10:41:09.884Z,74.66
2017-12-28T10:42:10.171Z,74.47
2017-12-28T10:43:09.907Z,73.99
2017-12-28T10:44:09.918Z,74.08
2017-12-28T10:45:09.934Z,74.08
2017-12-28T10:46:10.221Z,74.08
2017-12-28T10:47:10.237Z,74.37
2017-12-28T10:48:10.244Z,74.47
2017-12-28T10:49:10.255Z,74.08
2017-12-28T10:50:09.989Z,73.99
2017-12-28T10:51:10.006Z,73.71
2017-12-28T10:52:10.288Z,73.42
2017-12-28T10:53:10.299Z,74.08
2017-12-28T10:54:10.363Z,73.8
2017-12-28T10:55:10.328Z,73.52
2017-12-28T10:56:10.064Z,73.52
2017-12-28T10:57:10.350Z,73.52
2017-12-28T10:58:10.086Z,73.52
2017-12-28T10:59:10.374Z,73.52
2017-12-28T11:00:10.390Z,73.52
2017-12-28T11:01:10.398Z,73.8
2017-12-28T11:02:10.409Z,73.42
2017-12-28T11:03:10.421Z,73.71
2017-12-28T11:04:10.209Z,73.52
2017-12-28T11:05:10.173Z,73.52
2017-12-28T11:06:10.458Z,74.27
2017-12-28T11:07:10.204Z,74.56
2017-12-28T11:08:10.206Z,74.18
2017-12-28T11:09:10.492Z,74.08
2017-12-28T11:10:10.507Z,73.71
2017-12-28T11:11:10.243Z,73.61
2017-12-28T11:12:10.254Z,73.8
2017-12-28T11:13:10.544Z,73.71
2017-12-28T11:14:10.553Z,74.27
2017-12-28T11:15:10.564Z,74.18
2017-12-28T11:16:10.581Z,74.08
2017-12-28T11:17:10.316Z,74.18
2017-12-28T11:18:10.326Z,73.52
2017-12-28T11:19:10.354Z,73.99
2017-12-28T11:20:10.352Z,74.08
2017-12-28T11:21:10.639Z,74.08
2017-12-28T11:22:10.374Z,74.18
2017-12-28T11:23:10.661Z,74.18
2017-12-28T11:24:10.729Z,74.56
2017-12-28T11:25:10.410Z,73.99
2017-12-28T11:26:10.426Z,74.56
2017-12-28T11:27:10.439Z,74.66
2017-12-28T11:28:10.722Z,74.66
2017-12-28T11:29:10.735Z,74.18
2017-12-28T11:30:10.748Z,74.18
2017-12-28T11:31:10.484Z,74.27
2017-12-28T11:32:10.505Z,73.9
2017-12-28T11:33:10.510Z,74.56
2017-12-28T11:34:10.796Z,74.56
2017-12-28T11:35:10.811Z,74.08
2017-12-28T11:36:10.821Z,74.37
2017-12-28T11:37:10.559Z,74.18
2017-12-28T11:38:10.896Z,74.18
2017-12-28T11:39:10.858Z,74.37
2017-12-28T11:40:10.593Z,73.9
2017-12-28T11:41:10.881Z,74.56
2017-12-28T11:42:10.628Z,74.56
2017-12-28T11:43:10.908Z,74.37
2017-12-28T11:44:10.964Z,74.56
2017-12-28T11:45:10.929Z,74.75
2017-12-28T11:46:10.667Z,74.66
2017-12-28T11:47:10.678Z,74.56
2017-12-28T11:48:10.692Z,74.66
2017-12-28T11:49:11.081Z,74.66
2017-12-28T11:50:10.714Z,74.08
2017-12-28T11:51:10.729Z,74.66
2017-12-28T11:52:10.741Z,74.31
2017-12-28T11:53:10.752Z,73.99
2017-12-28T11:54:10.815Z,73.8
2017-12-28T11:55:11.050Z,73.8
2017-12-28T11:56:11.061Z,74.37
2017-12-28T11:57:11.077Z,73.23
2017-12-28T11:58:11.090Z,74.08
2017-12-28T11:59:11.102Z,73.52
2017-12-28T12:00:10.838Z,73.9
2017-12-28T12:01:10.850Z,73.99
2017-12-28T12:02:11.157Z,73.9
2017-12-28T12:03:10.879Z,74.03
2017-12-28T12:04:11.160Z,73.99
2017-12-28T12:05:10.899Z,74.08
2017-12-28T12:06:11.188Z,74.18
2017-12-28T12:07:11.202Z,74.66
2017-12-28T12:08:10.936Z,74.51
2017-12-28T12:09:11.272Z,74.22
2017-12-28T12:10:10.963Z,74.18
2017-12-28T12:11:10.974Z,74.18
2017-12-28T12:12:11.038Z,74.6
2017-12-28T12:13:11.307Z,74.08
2017-12-28T12:14:11.009Z,74.08
2017-12-28T12:15:11.022Z,74.12
2017-12-28T12:16:11.104Z,73.93
2017-12-28T12:17:11.328Z,73.93
2017-12-28T12:18:11.338Z,73.36
2017-12-28T12:19:11.399Z,73.65
2017-12-28T12:20:11.366Z,73.84
2017-12-28T12:21:11.372Z,73.8
2017-12-28T12:22:11.388Z,73.55
2017-12-28T12:23:11.122Z,73.74
2017-12-28T12:24:11.407Z,73.36
2017-12-28T12:25:11.148Z,73.55
2017-12-28T12:26:11.434Z,73.33
2017-12-28T12:27:11.452Z,72.99
2017-12-28T12:28:11.457Z,73.36
2017-12-28T12:29:11.501Z,72.89
2017-12-28T12:30:11.208Z,72.99
2017-12-28T12:31:11.221Z,73.65
2017-12-28T12:32:11.233Z,72.85
2017-12-28T12:33:11.525Z,72.95
2017-12-28T12:34:11.260Z,72.99
2017-12-28T12:35:11.548Z,72.89
2017-12-28T12:36:11.283Z,72.6
2017-12-28T12:37:11.571Z,72.38
2017-12-28T12:38:11.581Z,72.6
2017-12-28T12:39:11.319Z,73.55
2017-12-28T12:40:11.605Z,73.18
2017-12-28T12:41:11.347Z,73.27
2017-12-28T12:42:11.631Z,73.65
2017-12-28T12:43:11.651Z,73.08
2017-12-28T12:44:11.661Z,72.6
2017-12-28T12:45:11.394Z,72.79
2017-12-28T12:46:11.682Z,72.89
2017-12-28T12:47:11.699Z,73.08
2017-12-28T12:48:11.705Z,72.89
2017-12-28T12:49:11.716Z,73.08
2017-12-28T12:50:11.731Z,73.08
2017-12-28T12:51:11.469Z,72.99
2017-12-28T12:52:11.756Z,72.7
2017-12-28T12:53:11.771Z,72.7
2017-12-28T12:54:11.506Z,72.89